To NAV CANADA Home Page Login to a new session Search on AWWS site Feedback and Comments Disclaimer Vers la page française équivalente Tips FAQ What's new on the site To the Forecasts and Observations / NOTAM section To "File a Flight Plan" website Publications and other links Update of the User's profile FIC Telephone Numbers My Weather Data Folder Route Weather Data Regional Weather Data Local Weather Data To the Forecasts and Observations / NOTAM section
Request Generated 09/27/2016 at 08:39:47 UTC . Weather information available at that time is displayed.

METAR/TAF

STONY RAPIDS/SK    (show WxCam)

METAR CYSF 270800Z AUTO 08009G15KT 9SM FEW070 OVC085 09/05 A2986 RMK
SLP123=
METAR CYSF 270700Z AUTO 10009KT 9SM SCT075 BKN100 OVC230 09/05 A2987
RMK SLP127=
METAR CYSF 270600Z AUTO 08009KT 9SM FEW070 OVC094 09/05 A2990 RMK
SLP137=

TAF CYSF 270538Z 2706/2718 10008KT P6SM SCT060 BKN100 TEMPO 2706/2718
BKN060 OVC100
BECMG 2716/2718 18015KT
RMK FCST BASED ON AUTO OBS. NXT FCST BY 271200Z=
Your time UTC time
Weather data provided by Environment Canada and NAV CANADA